Palma de Mallorca

Airport
ICAO code: 
LEPA
Summary
ICAO Region: 
EUR
Territory: 
Location: 
Palma de Mallorca, Baleariac Islands,
Coordinates: 
Aerial View: 
39° 33' 1.772" N, 2° 44' 5.261" E
Airport RI: 
Runway Misidentification
Metar
Observation
LEPA 270000Z 03002KT 7000 1500N R24L/2000N R24R/1000U BCFG VV001 03/02 Q1029 NOSIG
Station
Palma De Mallorca / Son San Juan
Date/Time
2022-01-27 00:00:00
Wind direction
30°
Wind speed
02 kts
Lowest cloud amount
n/a
Temperature
3°C
Dew point
2°C
Humidity
93%
QNH
1029 hPa
Weather condition
n/a

Description

International airport serving the island of Majorca.

Climatology

Dry-summer subtropical ”Mediterranean" climate (Köppen climate classification Csa) - characterized by hot, dry summers and mild winters. During the summer, subtropical high pressure cells dominate, making rainfall unlikely except for the occasional thunderstorm. In the winter, periodic storms bring rain.

Runways

Designator Length Width Surface Rops
06R/24L 3000 45 ASP Yes/Yes
06L/24R 3270 45 ASP Yes/Yes
Airport map: 
Aerial View: 

SKYbrary Partners:

Safety knowledge contributed by: